Terminal Aerodrome Forecast
Issued by NWS

Home | Current Version | Previous Version | Text Only | Print | Product List | Glossary On
Versions: 1 2 3 4 5 6 7 8 9 10 11 12 13 14 15
000
FTUS41 KCAR 272335
TAFPQI
TAF
KPQI 272335Z 2800/2824 21011KT P6SM OVC090
      TEMPO 2808/2812 BKN025
     FM281600 23008KT P6SM SCT025 BKN050
      TEMPO 2819/2823 3SM -SHRA
      AMD LTD TO CLD VIS AND WIND=

USA.gov is the U.S. government's official web portal to all federal, state and local government web resources and services.